KRZL

Jasper County Airport

Rensselaer, Indiana, USA
METAR KRZL 180015Z AUTO 27003KT 10SM CLR 06/00 A3040 RMK AO2
Observed Flight Rules
Oct-18 @ 00:15 UTC (30 minutes ago) Visual Flight Rules
Wind Visibility Clouds
270° at 3 knots 10 miles
  • Clear skies
Temperatures Readings
Current 6°C / 43°F
Dewpoint 0°C / 32°F
Humidity 66%
Altimeter 30.4" Hg
Pressure 1029 hPa
Elevation 213
METAR KRZL 180015Z AUTO 27003KT 10SM CLR 06/00 A3040 RMK AO2
Observed Flight Rules
Oct-18 @ 00:15 UTC
(30 minutes ago)
VFR
Wind Visibility
270° at 3 knots 10 miles
Clouds
  • Clear skies
Temperature Dewpoint
6°C / 43°F 0°C / 32°F
Humidity Altimeter Pressure
66% 30.4" Hg 1029 hPa